OMD199 KFLL-KGYR
Flight info
| Callsign | OMD199 |
|---|---|
| Flight time | N/A |
| Altitude | 38000 |
| Route | BNICE2 DOLIE CIGAR Y290 LEV IAH JCT ELP J50 ALIBY J2 TUS SUNSS8 |
| Aircraft | A321/M-SDE3FGHIRWY/LB1 |
Departure
| Time | 2026-05-05 22:30 |
|---|---|
| Airport | Fort Lauderdale Hollywood International Airport (KFLL) |
Arrival
| Time | N/A |
|---|---|
| Airport | Phoenix Goodyear Airport (KGYR) |
| Time | Latitude | Longitude | Altitude | Speed | Heading |
|---|---|---|---|---|---|
| 2026-05-05 22:24 | 26.07925 | -80.14781 | 16 ft | 0 kts | 108° |
| 2026-05-05 22:26 | 26.07924 | -80.14780 | 16 ft | 1 kts | 108° |
| 2026-05-05 22:27 | 26.07906 | -80.14775 | 16 ft | 5 kts | 192° |
| 2026-05-05 22:27 | 26.07870 | -80.14796 | 16 ft | 7 kts | 217° |
| 2026-05-05 22:27 | 26.07811 | -80.14854 | 16 ft | 13 kts | 241° |
| 2026-05-05 22:27 | 26.07811 | -80.14964 | 16 ft | 17 kts | 269° |
| 2026-05-05 22:28 | 26.07809 | -80.15109 | 16 ft | 20 kts | 270° |
| 2026-05-05 22:28 | 26.07811 | -80.15271 | 16 ft | 22 kts | 270° |
| 2026-05-05 22:28 | 26.07812 | -80.15451 | 16 ft | 24 kts | 270° |
| 2026-05-05 22:28 | 26.07813 | -80.15643 | 16 ft | 26 kts | 270° |
| 2026-05-05 22:29 | 26.07815 | -80.15845 | 16 ft | 27 kts | 270° |
| 2026-05-05 22:29 | 26.07817 | -80.16058 | 17 ft | 28 kts | 270° |
| 2026-05-05 22:29 | 26.07816 | -80.16224 | 17 ft | 17 kts | 270° |
| 2026-05-05 22:29 | 26.07756 | -80.16304 | 19 ft | 12 kts | 179° |
| 2026-05-05 22:30 | 26.07695 | -80.16259 | 21 ft | 13 kts | 104° |
| 2026-05-05 22:30 | 26.07693 | -80.16011 | 19 ft | 75 kts | 90° |
| 2026-05-05 22:30 | 26.07686 | -80.15080 | 37 ft | 159 kts | 89° |
| 2026-05-05 22:30 | 26.07673 | -80.13755 | 799 ft | 177 kts | 89° |
| 2026-05-05 22:31 | 26.07695 | -80.12384 | 1784 ft | 179 kts | 84° |
| 2026-05-05 22:31 | 26.07767 | -80.10940 | 2208 ft | 198 kts | 84° |
| 2026-05-05 22:31 | 26.08165 | -80.09394 | 2661 ft | 220 kts | 67° |
| 2026-05-05 22:31 | 26.08843 | -80.07759 | 3144 ft | 249 kts | 54° |
| 2026-05-05 22:32 | 26.10237 | -80.06529 | 3845 ft | 265 kts | 22° |
| 2026-05-05 22:32 | 26.11974 | -80.05754 | 4875 ft | 274 kts | 17° |
| 2026-05-05 22:32 | 26.13798 | -80.05067 | 5895 ft | 276 kts | 12° |
| 2026-05-05 22:32 | 26.15701 | -80.04902 | 6921 ft | 274 kts | 352° |
| 2026-05-05 22:33 | 26.17569 | -80.05359 | 7829 ft | 278 kts | 337° |
| 2026-05-05 22:33 | 26.19372 | -80.06208 | 8774 ft | 283 kts | 335° |
| 2026-05-05 22:33 | 26.21124 | -80.07208 | 9665 ft | 283 kts | 323° |
| 2026-05-05 22:33 | 26.22589 | -80.08661 | 10448 ft | 283 kts | 307° |
| 2026-05-05 22:34 | 26.23580 | -80.10541 | 11182 ft | 286 kts | 292° |
| 2026-05-05 22:34 | 26.24356 | -80.12678 | 11460 ft | 308 kts | 291° |
| 2026-05-05 22:34 | 26.25161 | -80.14987 | 11649 ft | 331 kts | 289° |
| 2026-05-05 22:34 | 26.25723 | -80.17560 | 11812 ft | 353 kts | 279° |
| 2026-05-05 22:35 | 26.26089 | -80.20306 | 12291 ft | 362 kts | 279° |
| 2026-05-05 22:35 | 26.26473 | -80.23099 | 13001 ft | 367 kts | 279° |
| 2026-05-05 22:35 | 26.26869 | -80.25916 | 13784 ft | 370 kts | 280° |
| 2026-05-05 22:35 | 26.27278 | -80.28755 | 14470 ft | 373 kts | 280° |
| 2026-05-05 22:36 | 26.27694 | -80.31625 | 15107 ft | 377 kts | 280° |
| 2026-05-05 22:36 | 26.28110 | -80.34522 | 15756 ft | 380 kts | 280° |
| 2026-05-05 22:36 | 26.28526 | -80.37441 | 16393 ft | 383 kts | 280° |
| 2026-05-05 22:36 | 26.28943 | -80.40382 | 17016 ft | 386 kts | 280° |
| 2026-05-05 22:37 | 26.29363 | -80.43353 | 17640 ft | 390 kts | 280° |
| 2026-05-05 22:37 | 26.29787 | -80.46350 | 18263 ft | 393 kts | 280° |
| 2026-05-05 22:37 | 26.30214 | -80.49367 | 18789 ft | 396 kts | 280° |
| 2026-05-05 22:37 | 26.30645 | -80.52406 | 19334 ft | 398 kts | 280° |
| 2026-05-05 22:38 | 26.31077 | -80.55466 | 19873 ft | 400 kts | 281° |
| 2026-05-05 22:38 | 26.31510 | -80.58537 | 20371 ft | 402 kts | 280° |
| 2026-05-05 22:38 | 26.31940 | -80.61615 | 20873 ft | 404 kts | 280° |
| 2026-05-05 22:38 | 26.32371 | -80.64715 | 21367 ft | 406 kts | 280° |
| 2026-05-05 22:39 | 26.32805 | -80.67830 | 21847 ft | 408 kts | 280° |
| 2026-05-05 22:39 | 26.33239 | -80.70958 | 22301 ft | 410 kts | 280° |
| 2026-05-05 22:39 | 26.33676 | -80.74107 | 22752 ft | 412 kts | 280° |
| 2026-05-05 22:39 | 26.34118 | -80.77268 | 23193 ft | 414 kts | 280° |
| 2026-05-05 22:40 | 26.34561 | -80.80443 | 23616 ft | 416 kts | 280° |
| 2026-05-05 22:40 | 26.35005 | -80.83636 | 23976 ft | 418 kts | 280° |
| 2026-05-05 22:40 | 26.35451 | -80.86844 | 24349 ft | 420 kts | 281° |
| 2026-05-05 22:40 | 26.36171 | -80.89990 | 24702 ft | 420 kts | 290° |
| 2026-05-05 22:41 | 26.37400 | -80.92938 | 25072 ft | 420 kts | 301° |
| 2026-05-05 22:41 | 26.39081 | -80.95557 | 25434 ft | 422 kts | 310° |
| 2026-05-05 22:41 | 26.41174 | -80.97867 | 25788 ft | 425 kts | 316° |
| 2026-05-05 22:41 | 26.43342 | -81.00120 | 26147 ft | 426 kts | 315° |
| 2026-05-05 22:42 | 26.45507 | -81.02385 | 26519 ft | 428 kts | 315° |
| 2026-05-05 22:42 | 26.47679 | -81.04666 | 26887 ft | 429 kts | 315° |
| 2026-05-05 22:42 | 26.49856 | -81.06960 | 27264 ft | 431 kts | 315° |
| 2026-05-05 22:42 | 26.51934 | -81.09152 | 27614 ft | 433 kts | 315° |
| 2026-05-05 22:43 | 26.54120 | -81.11462 | 27867 ft | 434 kts | 315° |
| 2026-05-05 22:43 | 26.56315 | -81.13781 | 28193 ft | 435 kts | 315° |
| 2026-05-05 22:43 | 26.58522 | -81.16107 | 28615 ft | 435 kts | 315° |
| 2026-05-05 22:43 | 26.60712 | -81.18417 | 29166 ft | 431 kts | 316° |
| 2026-05-05 22:44 | 26.62883 | -81.20708 | 29763 ft | 427 kts | 316° |
| 2026-05-05 22:44 | 26.65033 | -81.22978 | 30271 ft | 424 kts | 316° |
| 2026-05-05 22:44 | 26.67163 | -81.25234 | 30741 ft | 421 kts | 316° |
| 2026-05-05 22:44 | 26.69285 | -81.27485 | 31191 ft | 419 kts | 315° |
| 2026-05-05 22:45 | 26.71389 | -81.29722 | 31643 ft | 416 kts | 315° |
| 2026-05-05 22:45 | 26.73485 | -81.31951 | 32104 ft | 414 kts | 315° |
| 2026-05-05 22:45 | 26.75560 | -81.34164 | 32566 ft | 411 kts | 315° |
| 2026-05-05 22:45 | 26.77626 | -81.36367 | 33016 ft | 409 kts | 315° |
| 2026-05-05 22:46 | 26.79682 | -81.38557 | 33471 ft | 407 kts | 315° |
| 2026-05-05 22:46 | 26.81726 | -81.40738 | 33919 ft | 405 kts | 315° |
| 2026-05-05 22:46 | 26.83758 | -81.42910 | 34313 ft | 403 kts | 315° |
| 2026-05-05 22:46 | 26.85780 | -81.45071 | 34692 ft | 401 kts | 315° |
| 2026-05-05 22:47 | 26.87793 | -81.47223 | 35075 ft | 399 kts | 315° |
| 2026-05-05 22:47 | 26.89794 | -81.49364 | 35455 ft | 397 kts | 315° |
| 2026-05-05 22:47 | 26.91789 | -81.51498 | 35862 ft | 395 kts | 315° |
| 2026-05-05 22:47 | 26.93770 | -81.53616 | 36297 ft | 392 kts | 315° |
| 2026-05-05 22:48 | 26.95711 | -81.55690 | 36712 ft | 389 kts | 315° |
| 2026-05-05 22:48 | 26.97664 | -81.57777 | 37104 ft | 387 kts | 315° |
| 2026-05-05 22:48 | 26.99608 | -81.59860 | 37465 ft | 385 kts | 315° |
| 2026-05-05 22:48 | 27.01540 | -81.61930 | 37807 ft | 384 kts | 315° |
| 2026-05-05 22:49 | 27.03474 | -81.64003 | 37989 ft | 384 kts | 315° |
| 2026-05-05 22:49 | 27.07328 | -81.68136 | 38018 ft | 383 kts | 315° |
| 2026-05-05 22:50 | 27.11138 | -81.72228 | 38016 ft | 383 kts | 315° |
| 2026-05-05 22:50 | 27.14929 | -81.76306 | 38018 ft | 383 kts | 315° |
| 2026-05-05 22:51 | 27.18770 | -81.80443 | 38019 ft | 383 kts | 315° |
| 2026-05-05 22:51 | 27.22614 | -81.84588 | 38027 ft | 383 kts | 315° |
| 2026-05-05 22:52 | 27.26373 | -81.88828 | 38051 ft | 382 kts | 307° |
| 2026-05-05 22:52 | 27.28690 | -81.94159 | 38050 ft | 385 kts | 287° |
| 2026-05-05 22:53 | 27.29313 | -82.00190 | 38051 ft | 389 kts | 280° |
| 2026-05-05 22:53 | 27.29809 | -82.06246 | 38050 ft | 389 kts | 280° |
| 2026-05-05 22:54 | 27.30309 | -82.12312 | 38051 ft | 390 kts | 280° |
| 2026-05-05 22:54 | 27.30806 | -82.18384 | 38051 ft | 390 kts | 280° |
| 2026-05-05 22:55 | 27.31295 | -82.24409 | 38053 ft | 390 kts | 280° |
| 2026-05-05 22:55 | 27.31782 | -82.30520 | 38054 ft | 390 kts | 280° |
| 2026-05-05 22:56 | 27.32261 | -82.36585 | 38052 ft | 389 kts | 280° |
| 2026-05-05 22:56 | 27.32740 | -82.42648 | 38051 ft | 389 kts | 280° |
| 2026-05-05 22:57 | 27.33217 | -82.48708 | 38052 ft | 389 kts | 280° |
| 2026-05-05 22:57 | 27.33693 | -82.54778 | 38065 ft | 389 kts | 280° |
| 2026-05-05 22:58 | 27.34167 | -82.60836 | 38066 ft | 389 kts | 280° |
| 2026-05-05 22:58 | 27.34557 | -82.65880 | 38066 ft | 389 kts | 280° |
| 2026-05-05 22:59 | 27.35026 | -82.71944 | 38063 ft | 389 kts | 280° |
| 2026-05-05 22:59 | 27.35490 | -82.78015 | 38062 ft | 389 kts | 280° |
| 2026-05-05 23:00 | 27.36179 | -82.87127 | 38051 ft | 390 kts | 280° |
| 2026-05-05 23:00 | 27.36647 | -82.93205 | 38046 ft | 390 kts | 280° |
| 2026-05-05 23:01 | 27.37105 | -82.99291 | 38045 ft | 390 kts | 279° |
| 2026-05-05 23:01 | 27.37553 | -83.05374 | 38045 ft | 390 kts | 280° |
| 2026-05-05 23:02 | 27.38006 | -83.11461 | 38054 ft | 390 kts | 280° |
| 2026-05-05 23:02 | 27.38457 | -83.17554 | 38030 ft | 391 kts | 279° |
| 2026-05-05 23:03 | 27.38903 | -83.23665 | 38034 ft | 392 kts | 279° |
| 2026-05-05 23:03 | 27.39344 | -83.29741 | 38046 ft | 393 kts | 279° |
| 2026-05-05 23:04 | 27.39787 | -83.35870 | 38046 ft | 393 kts | 279° |
| 2026-05-05 23:04 | 27.40227 | -83.42003 | 38047 ft | 393 kts | 279° |
| 2026-05-05 23:05 | 27.40666 | -83.48143 | 38048 ft | 393 kts | 279° |
| 2026-05-05 23:05 | 27.41107 | -83.54274 | 38037 ft | 393 kts | 279° |
| 2026-05-05 23:06 | 27.41546 | -83.60410 | 38050 ft | 394 kts | 279° |
| 2026-05-05 23:06 | 27.41980 | -83.66556 | 38052 ft | 394 kts | 279° |
| 2026-05-05 23:07 | 27.42407 | -83.72716 | 38054 ft | 395 kts | 279° |
| 2026-05-05 23:07 | 27.42830 | -83.78873 | 38051 ft | 395 kts | 279° |
| 2026-05-05 23:08 | 27.43250 | -83.85036 | 38052 ft | 395 kts | 279° |
| 2026-05-05 23:08 | 27.43673 | -83.91191 | 38045 ft | 394 kts | 279° |
| 2026-05-05 23:09 | 27.44101 | -83.97347 | 38041 ft | 395 kts | 279° |
| 2026-05-05 23:09 | 27.44516 | -84.03512 | 38044 ft | 395 kts | 279° |
| 2026-05-05 23:10 | 27.44926 | -84.09683 | 38048 ft | 395 kts | 279° |
| 2026-05-05 23:10 | 27.45337 | -84.15854 | 38048 ft | 395 kts | 279° |
| 2026-05-05 23:11 | 27.45750 | -84.22027 | 38046 ft | 395 kts | 279° |
| 2026-05-05 23:11 | 27.46154 | -84.28202 | 38048 ft | 396 kts | 279° |
| 2026-05-05 23:12 | 27.46556 | -84.34385 | 38051 ft | 396 kts | 279° |
| 2026-05-05 23:12 | 27.46961 | -84.40572 | 38056 ft | 397 kts | 279° |
| 2026-05-05 23:13 | 27.47352 | -84.46735 | 38056 ft | 397 kts | 279° |
| 2026-05-05 23:13 | 27.47748 | -84.52981 | 38057 ft | 397 kts | 279° |
| 2026-05-05 23:14 | 27.48145 | -84.59136 | 38054 ft | 397 kts | 279° |
| 2026-05-05 23:14 | 27.48541 | -84.65337 | 38055 ft | 397 kts | 279° |
| 2026-05-05 23:15 | 27.48931 | -84.71540 | 38044 ft | 397 kts | 278° |
| 2026-05-05 23:15 | 27.49323 | -84.77744 | 38045 ft | 396 kts | 281° |
| 2026-05-05 23:16 | 27.50321 | -84.83810 | 38053 ft | 394 kts | 285° |
| 2026-05-05 23:16 | 27.51369 | -84.89720 | 38054 ft | 394 kts | 285° |
| 2026-05-05 23:17 | 27.52434 | -84.95782 | 38052 ft | 395 kts | 285° |
| 2026-05-05 23:17 | 27.53500 | -85.01845 | 38054 ft | 395 kts | 285° |
| 2026-05-05 23:18 | 27.54569 | -85.07910 | 38042 ft | 395 kts | 285° |
| 2026-05-05 23:18 | 27.55634 | -85.13978 | 38046 ft | 395 kts | 284° |
| 2026-05-05 23:19 | 27.56693 | -85.20055 | 38050 ft | 395 kts | 284° |
| 2026-05-05 23:19 | 27.57743 | -85.26140 | 38051 ft | 395 kts | 284° |
| 2026-05-05 23:20 | 27.58795 | -85.32224 | 38047 ft | 395 kts | 284° |
| 2026-05-05 23:20 | 27.60298 | -85.38145 | 38046 ft | 392 kts | 291° |
| 2026-05-05 23:21 | 27.62060 | -85.43972 | 38042 ft | 393 kts | 291° |
| 2026-05-05 23:21 | 27.63808 | -85.49805 | 38045 ft | 393 kts | 291° |
| 2026-05-05 23:22 | 27.65549 | -85.55643 | 38046 ft | 393 kts | 291° |
| 2026-05-05 23:22 | 27.67291 | -85.61488 | 38045 ft | 393 kts | 291° |
| 2026-05-05 23:23 | 27.69030 | -85.67339 | 38049 ft | 393 kts | 291° |
| 2026-05-05 23:23 | 27.70778 | -85.73183 | 38045 ft | 393 kts | 291° |
| 2026-05-05 23:24 | 27.72519 | -85.79040 | 38054 ft | 394 kts | 291° |
| 2026-05-05 23:24 | 27.74212 | -85.84750 | 38054 ft | 393 kts | 291° |
| 2026-05-05 23:25 | 27.75942 | -85.90609 | 38051 ft | 393 kts | 291° |
| 2026-05-05 23:25 | 27.77673 | -85.96469 | 38046 ft | 393 kts | 291° |
| 2026-05-05 23:26 | 27.79391 | -86.02290 | 38045 ft | 393 kts | 291° |
| 2026-05-05 23:26 | 27.81125 | -86.08149 | 38052 ft | 393 kts | 291° |
| 2026-05-05 23:27 | 27.82853 | -86.14013 | 38051 ft | 394 kts | 290° |
| 2026-05-05 23:27 | 27.84574 | -86.19890 | 38046 ft | 394 kts | 290° |
| 2026-05-05 23:28 | 27.86301 | -86.25766 | 38041 ft | 394 kts | 290° |
| 2026-05-05 23:28 | 27.88022 | -86.31645 | 38042 ft | 394 kts | 290° |
| 2026-05-05 23:29 | 27.89741 | -86.37532 | 38051 ft | 394 kts | 290° |
| 2026-05-05 23:29 | 27.91456 | -86.43404 | 38049 ft | 394 kts | 290° |
| 2026-05-05 23:30 | 27.93161 | -86.49291 | 38043 ft | 394 kts | 290° |
| 2026-05-05 23:30 | 27.94867 | -86.55173 | 38045 ft | 394 kts | 290° |
| 2026-05-05 23:31 | 27.96572 | -86.61058 | 38051 ft | 393 kts | 290° |
| 2026-05-05 23:31 | 27.98263 | -86.66901 | 38048 ft | 393 kts | 290° |
| 2026-05-05 23:32 | 27.99959 | -86.72778 | 38044 ft | 393 kts | 290° |
| 2026-05-05 23:32 | 28.01662 | -86.78657 | 38046 ft | 393 kts | 290° |
| 2026-05-05 23:33 | 28.03408 | -86.84518 | 38061 ft | 393 kts | 290° |
| 2026-05-05 23:33 | 28.05161 | -86.90365 | 38052 ft | 392 kts | 290° |
| 2026-05-05 23:34 | 28.06907 | -86.96208 | 38038 ft | 391 kts | 290° |
| 2026-05-05 23:34 | 28.08649 | -87.02048 | 38039 ft | 392 kts | 290° |
| 2026-05-05 23:35 | 28.10377 | -87.07900 | 38046 ft | 392 kts | 290° |
| 2026-05-05 23:35 | 28.12104 | -87.13754 | 38040 ft | 392 kts | 290° |
| 2026-05-05 23:36 | 28.13833 | -87.19607 | 38038 ft | 392 kts | 290° |
| 2026-05-05 23:36 | 28.15563 | -87.25463 | 38036 ft | 392 kts | 290° |
| 2026-05-05 23:37 | 28.17249 | -87.31188 | 38040 ft | 392 kts | 290° |
| 2026-05-05 23:37 | 28.18971 | -87.37052 | 38032 ft | 392 kts | 290° |
| 2026-05-05 23:38 | 28.20688 | -87.42926 | 38035 ft | 393 kts | 290° |
| 2026-05-05 23:38 | 28.22406 | -87.48808 | 38034 ft | 393 kts | 290° |
| 2026-05-05 23:39 | 28.24125 | -87.54702 | 38039 ft | 393 kts | 290° |
| 2026-05-05 23:39 | 28.25831 | -87.60557 | 38035 ft | 393 kts | 290° |
| 2026-05-05 23:40 | 28.27549 | -87.66448 | 38030 ft | 393 kts | 290° |
| 2026-05-05 23:40 | 28.29262 | -87.72340 | 38019 ft | 393 kts | 290° |
| 2026-05-05 23:41 | 28.30970 | -87.78239 | 38019 ft | 394 kts | 289° |
| 2026-05-05 23:41 | 28.32677 | -87.84153 | 38017 ft | 394 kts | 289° |
| 2026-05-05 23:42 | 28.34390 | -87.90071 | 38017 ft | 395 kts | 289° |
| 2026-05-05 23:42 | 28.36097 | -87.96000 | 38039 ft | 395 kts | 289° |
| 2026-05-05 23:43 | 28.37794 | -88.01929 | 38040 ft | 394 kts | 289° |
| 2026-05-05 23:43 | 28.39511 | -88.06705 | 38034 ft | 393 kts | 295° |
| 2026-05-05 23:44 | 28.41743 | -88.12369 | 38031 ft | 393 kts | 294° |
| 2026-05-05 23:44 | 28.43975 | -88.18048 | 38032 ft | 393 kts | 294° |
| 2026-05-05 23:45 | 28.46568 | -88.24649 | 38033 ft | 394 kts | 294° |
| 2026-05-05 23:45 | 28.48432 | -88.29415 | 38034 ft | 394 kts | 294° |
| 2026-05-05 23:46 | 28.50657 | -88.35109 | 38027 ft | 394 kts | 294° |
| 2026-05-05 23:46 | 28.52873 | -88.40795 | 38026 ft | 393 kts | 294° |
| 2026-05-05 23:47 | 28.55071 | -88.46451 | 38024 ft | 393 kts | 294° |
| 2026-05-05 23:47 | 28.57285 | -88.52145 | 38010 ft | 394 kts | 294° |
| 2026-05-05 23:48 | 28.59504 | -88.57849 | 38017 ft | 394 kts | 294° |
| 2026-05-05 23:48 | 28.61720 | -88.63561 | 38019 ft | 395 kts | 294° |
| 2026-05-05 23:49 | 28.63940 | -88.69282 | 38020 ft | 395 kts | 294° |
| 2026-05-05 23:49 | 28.66152 | -88.75009 | 38039 ft | 395 kts | 294° |
| 2026-05-05 23:50 | 28.68362 | -88.80737 | 38028 ft | 395 kts | 294° |
| 2026-05-05 23:50 | 28.70570 | -88.86463 | 38031 ft | 394 kts | 293° |
| 2026-05-05 23:51 | 28.72772 | -88.92180 | 38023 ft | 394 kts | 293° |
| 2026-05-05 23:51 | 28.74971 | -88.97908 | 38027 ft | 394 kts | 293° |
| 2026-05-05 23:52 | 28.77172 | -89.03638 | 38023 ft | 394 kts | 293° |
| 2026-05-05 23:52 | 28.79367 | -89.09359 | 38017 ft | 394 kts | 293° |
| 2026-05-05 23:53 | 28.81553 | -89.15078 | 38014 ft | 393 kts | 293° |
| 2026-05-05 23:53 | 28.83735 | -89.20795 | 38016 ft | 393 kts | 293° |
| 2026-05-05 23:54 | 28.85920 | -89.26519 | 37998 ft | 394 kts | 293° |
| 2026-05-05 23:54 | 28.88100 | -89.32256 | 38000 ft | 394 kts | 292° |
| 2026-05-05 23:55 | 28.90283 | -89.38006 | 38010 ft | 395 kts | 293° |
| 2026-05-05 23:55 | 28.92476 | -89.43764 | 38006 ft | 395 kts | 293° |
| 2026-05-05 23:56 | 28.94660 | -89.49525 | 38001 ft | 395 kts | 292° |
| 2026-05-05 23:56 | 28.96840 | -89.55291 | 38021 ft | 395 kts | 292° |
| 2026-05-05 23:57 | 28.98945 | -89.60859 | 38009 ft | 393 kts | 292° |
| 2026-05-05 23:57 | 29.01128 | -89.66630 | 38008 ft | 393 kts | 292° |
| 2026-05-05 23:58 | 29.03267 | -89.72327 | 37998 ft | 392 kts | 292° |
| 2026-05-05 23:58 | 29.05419 | -89.78053 | 37998 ft | 392 kts | 292° |
| 2026-05-05 23:59 | 29.07571 | -89.83779 | 38000 ft | 392 kts | 292° |
| 2026-05-05 23:59 | 29.09719 | -89.89503 | 37996 ft | 392 kts | 292° |
| 2026-05-06 00:00 | 29.11863 | -89.95234 | 37993 ft | 392 kts | 292° |
| 2026-05-06 00:00 | 29.14007 | -90.00972 | 37990 ft | 392 kts | 292° |
| 2026-05-06 00:01 | 29.16148 | -90.06708 | 37992 ft | 392 kts | 292° |
| 2026-05-06 00:01 | 29.17900 | -90.12605 | 37996 ft | 392 kts | 281° |
| 2026-05-06 00:02 | 29.18930 | -90.18749 | 37989 ft | 393 kts | 282° |
| 2026-05-06 00:02 | 29.19972 | -90.24888 | 37995 ft | 393 kts | 282° |
| 2026-05-06 00:03 | 29.21016 | -90.31026 | 37994 ft | 393 kts | 282° |
| 2026-05-06 00:03 | 29.22050 | -90.37170 | 37993 ft | 393 kts | 282° |
| 2026-05-06 00:04 | 29.23076 | -90.43327 | 37978 ft | 394 kts | 281° |
| 2026-05-06 00:04 | 29.24109 | -90.49492 | 37979 ft | 395 kts | 281° |
| 2026-05-06 00:05 | 29.25653 | -90.58757 | 37999 ft | 395 kts | 281° |
| 2026-05-06 00:06 | 29.26651 | -90.64785 | 37999 ft | 394 kts | 281° |
| 2026-05-06 00:06 | 29.27669 | -90.70942 | 37992 ft | 393 kts | 281° |
| 2026-05-06 00:07 | 29.28689 | -90.77089 | 37979 ft | 393 kts | 281° |
| 2026-05-06 00:07 | 29.29701 | -90.83248 | 37984 ft | 393 kts | 281° |
| 2026-05-06 00:08 | 29.30707 | -90.89409 | 37986 ft | 393 kts | 281° |
| 2026-05-06 00:08 | 29.31714 | -90.95569 | 37981 ft | 394 kts | 281° |
| 2026-05-06 00:09 | 29.32718 | -91.01736 | 37971 ft | 394 kts | 281° |
| 2026-05-06 00:09 | 29.33716 | -91.07906 | 37977 ft | 394 kts | 281° |
| 2026-05-06 00:10 | 29.34718 | -91.14087 | 37976 ft | 394 kts | 281° |
| 2026-05-06 00:10 | 29.35717 | -91.20270 | 37970 ft | 395 kts | 281° |
| 2026-05-06 00:11 | 29.36719 | -91.26472 | 37974 ft | 396 kts | 281° |
| 2026-05-06 00:11 | 29.37719 | -91.32680 | 37975 ft | 396 kts | 281° |
| 2026-05-06 00:12 | 29.38709 | -91.38892 | 37971 ft | 396 kts | 280° |
| 2026-05-06 00:12 | 29.39675 | -91.44954 | 37975 ft | 396 kts | 280° |
| 2026-05-06 00:13 | 29.40664 | -91.51170 | 37970 ft | 396 kts | 280° |
| 2026-05-06 00:13 | 29.41649 | -91.57392 | 37977 ft | 397 kts | 280° |
| 2026-05-06 00:14 | 29.42632 | -91.63618 | 37975 ft | 397 kts | 280° |
| 2026-05-06 00:14 | 29.43611 | -91.69844 | 37970 ft | 397 kts | 280° |
| 2026-05-06 00:15 | 29.44591 | -91.76071 | 37969 ft | 396 kts | 280° |
| 2026-05-06 00:15 | 29.45563 | -91.82293 | 37964 ft | 396 kts | 280° |
| 2026-05-06 00:16 | 29.46530 | -91.88514 | 37957 ft | 396 kts | 280° |